Time;durP1;ratioP1;P1;durP2;ratioP2;P2;SDS_P1;SDS_P2;PMS_P1;PMS_P2;Temp;Humidity;BMP_temperature;BMP_pressure;BME280_temperature;BME280_humidity;BME280_pressure;Samples;Min_cycle;Max_cycle;Signal;HPM_P1;HPM_P2
2023/05/11 00:00:36;;;;;;;2.47;2.37;;;;;;;17.07;63.64;101156.53;4997579;28;100423;-82
2023/05/11 00:03:02;;;;;;;2.37;2.27;;;;;;;17.08;63.57;101162.88;4998225;28;99903;-82
2023/05/11 00:05:27;;;;;;;2.83;2.63;;;;;;;17.06;63.57;101168.94;5001257;28;97134;-82
2023/05/11 00:07:52;;;;;;;2.50;2.40;;;;;;;17.02;63.66;101149.00;4998606;28;97174;-81
2023/05/11 00:10:18;;;;;;;3.90;2.47;;;;;;;17.02;63.62;101145.47;4999624;28;97377;-82
2023/05/11 00:12:43;;;;;;;2.33;2.23;;;;;;;17.05;63.76;101150.00;5000409;28;99326;-81
2023/05/11 00:15:09;;;;;;;3.37;2.30;;;;;;;17.09;63.51;101167.13;4997719;28;97248;-82
2023/05/11 00:17:34;;;;;;;2.77;2.57;;;;;;;17.02;63.52;101142.69;4998856;28;96921;-82
2023/05/11 00:20:00;;;;;;;2.77;2.60;;;;;;;17.10;63.54;101188.84;5014946;27;100503;-81
2023/05/11 00:22:25;;;;;;;2.23;2.10;;;;;;;17.13;63.50;101170.34;5000418;28;98948;-82
2023/05/11 00:24:51;;;;;;;2.37;2.27;;;;;;;17.11;63.58;101157.00;4998456;28;97276;-82
2023/05/11 00:27:16;;;;;;;2.53;2.43;;;;;;;17.09;63.47;101159.56;4998427;28;96793;-82
2023/05/11 00:29:41;;;;;;;2.90;2.70;;;;;;;17.08;63.53;101154.53;5001620;28;97978;-82
2023/05/11 00:32:07;;;;;;;3.90;2.97;;;;;;;17.05;63.40;101163.91;4998229;28;97153;-82
2023/05/11 00:34:33;;;;;;;2.70;2.50;;;;;;;17.05;63.43;101152.78;4999613;28;96971;-82
2023/05/11 00:36:58;;;;;;;4.43;2.70;;;;;;;17.00;63.51;101154.34;5003092;28;96659;-82
2023/05/11 00:39:23;;;;;;;3.00;2.80;;;;;;;16.99;63.71;101152.09;5000024;28;97522;-82
2023/05/11 00:41:49;;;;;;;2.20;2.10;;;;;;;16.99;63.63;101154.88;5008740;27;98882;-81
2023/05/11 00:44:14;;;;;;;2.70;2.60;;;;;;;16.98;63.80;101154.13;5001939;28;97189;-82
2023/05/11 00:46:41;;;;;;;2.77;2.67;;;;;;;16.97;63.55;101165.78;4997128;28;98304;-82
2023/05/11 00:49:06;;;;;;;2.73;2.63;;;;;;;16.96;63.62;101158.69;5003490;28;100152;-82
2023/05/11 00:51:32;;;;;;;3.43;3.23;;;;;;;16.92;63.84;101159.00;4999322;28;101507;-82
2023/05/11 00:53:58;;;;;;;2.40;2.30;;;;;;;16.86;63.72;101182.59;5001663;28;97109;-82
2023/05/11 00:56:23;;;;;;;2.70;2.50;;;;;;;16.83;63.73;101153.81;5001752;28;97086;-81
2023/05/11 00:58:49;;;;;;;3.70;2.90;;;;;;;16.78;63.82;101151.09;4998077;28;97050;-81
2023/05/11 01:01:16;;;;;;;2.60;2.50;;;;;;;16.71;64.12;101151.69;4997128;28;97685;-81
2023/05/11 01:03:42;;;;;;;3.30;3.10;;;;;;;16.71;64.01;101162.81;4999167;28;96661;-82
2023/05/11 01:06:26;;;;;;;2.83;2.73;;;;;;;16.72;64.34;101153.94;5013571;27;97182;-82
2023/05/11 01:09:01;;;;;;;2.40;2.30;;;;;;;16.71;63.95;101165.59;5006248;28;99497;-82
2023/05/11 01:11:33;;;;;;;2.80;2.70;;;;;;;16.72;63.88;101153.19;5015541;27;100096;-82
2023/05/11 01:14:29;;;;;;;6.63;3.17;;;;;;;16.63;64.42;101134.09;5010299;27;96993;-82
2023/05/11 01:16:58;;;;;;;3.03;2.83;;;;;;;16.68;63.85;101138.84;4997636;28;96907;-81
2023/05/11 01:19:23;;;;;;;2.57;2.37;;;;;;;16.73;63.89;101154.69;5005870;28;100318;-83
2023/05/11 01:21:50;;;;;;;2.70;2.60;;;;;;;16.68;63.86;101214.59;4998942;28;97637;-83
2023/05/11 01:24:18;;;;;;;2.67;2.57;;;;;;;16.78;63.94;101156.63;5013206;27;97406;-82
2023/05/11 01:27:13;;;;;;;2.60;2.20;;;;;;;16.78;64.25;101162.19;5010388;27;96791;-82
2023/05/11 01:30:11;;;;;;;2.77;2.67;;;;;;;16.78;64.21;101159.41;4996406;28;101298;-81
2023/05/11 01:32:39;;;;;;;2.10;2.00;;;;;;;16.77;63.70;101157.94;5010869;27;100823;-82
2023/05/11 01:35:09;;;;;;;3.20;3.00;;;;;;;16.78;63.67;101185.19;4997469;28;99778;-81
2023/05/11 01:37:37;;;;;;;3.13;2.93;;;;;;;16.80;63.55;101165.22;4997519;28;100001;-82
2023/05/11 01:40:11;;;;;;;2.60;2.50;;;;;;;16.78;63.67;101156.63;4999044;28;97499;-82
2023/05/11 01:42:45;;;;;;;2.97;2.77;;;;;;;16.78;63.89;101156.63;4996327;28;99766;-81
2023/05/11 01:45:12;;;;;;;2.70;2.60;;;;;;;16.75;63.71;101174.38;5000422;28;102292;-82
2023/05/11 01:47:40;;;;;;;3.33;3.13;;;;;;;16.74;63.69;101165.28;4999957;28;97068;-81
2023/05/11 01:50:07;;;;;;;2.77;2.57;;;;;;;16.73;63.68;101160.25;4995706;28;98486;-83
2023/05/11 01:52:35;;;;;;;3.07;2.87;;;;;;;16.70;63.75;101156.50;5012307;27;101136;-82
2023/05/11 01:55:04;;;;;;;3.27;3.07;;;;;;;16.73;63.82;101171.38;4997225;28;97654;-82
2023/05/11 01:57:31;;;;;;;2.43;2.33;;;;;;;16.72;63.76;101161.50;4996664;28;96914;-82
2023/05/11 01:59:58;;;;;;;3.20;3.00;;;;;;;16.70;63.76;101166.84;4998171;28;97218;-82
2023/05/11 02:02:25;;;;;;;2.70;2.50;;;;;;;16.74;63.72;101190.28;5005555;28;99665;-82
2023/05/11 02:04:52;;;;;;;2.60;2.50;;;;;;;16.72;63.69;101178.94;4996870;28;98341;-82
2023/05/11 02:07:19;;;;;;;3.03;2.83;;;;;;;16.73;63.84;101193.59;4999879;28;97305;-82
2023/05/11 02:09:46;;;;;;;3.07;2.87;;;;;;;16.72;63.70;101175.41;5011590;27;100305;-81
2023/05/11 02:12:13;;;;;;;3.10;2.90;;;;;;;16.72;63.66;101186.53;5011339;27;99431;-80
2023/05/11 02:14:40;;;;;;;3.20;3.00;;;;;;;16.67;63.73;101206.78;4998748;28;96824;-82
2023/05/11 02:17:07;;;;;;;2.70;2.60;;;;;;;16.73;63.67;101182.47;5016117;27;98111;-82
2023/05/11 02:19:34;;;;;;;3.03;2.90;;;;;;;16.66;63.64;101171.94;4998527;28;98036;-82
2023/05/11 02:22:02;;;;;;;3.93;3.63;;;;;;;16.66;63.85;101169.16;4992427;28;99268;-81
2023/05/11 02:24:29;;;;;;;3.17;2.97;;;;;;;16.65;63.74;101185.09;5014363;27;97435;-82
2023/05/11 02:26:55;;;;;;;3.33;3.20;;;;;;;16.64;63.93;101189.16;4998517;28;97125;-83
2023/05/11 02:29:20;;;;;;;3.90;3.60;;;;;;;16.64;63.92;101180.81;4998180;28;100155;-81
2023/05/11 02:31:50;;;;;;;5.40;3.40;;;;;;;16.57;63.90;101167.50;4997802;28;98965;-82
2023/05/11 02:34:37;;;;;;;3.60;3.40;;;;;;;16.62;64.18;101190.94;5010661;27;97402;-82
2023/05/11 02:37:08;;;;;;;2.63;2.53;;;;;;;16.64;63.78;101185.63;4997487;28;97148;-82
2023/05/11 02:39:35;;;;;;;3.50;3.23;;;;;;;16.62;63.76;101185.38;5003595;28;99554;-81
2023/05/11 02:42:10;;;;;;;3.30;3.10;;;;;;;16.59;63.93;101200.31;5000234;28;99042;-81
2023/05/11 02:44:38;;;;;;;3.47;3.17;;;;;;;16.54;63.96;101201.09;5006966;28;97304;-81
2023/05/11 02:47:07;;;;;;;3.80;3.50;;;;;;;16.54;63.84;101195.53;4999077;28;97695;-82
2023/05/11 02:49:36;;;;;;;4.97;4.37;;;;;;;16.49;63.93;101183.94;5004684;28;99164;-81
2023/05/11 02:52:02;;;;;;;4.07;3.77;;;;;;;16.54;64.04;101190.00;4999637;28;97440;-82
2023/05/11 02:54:30;;;;;;;4.00;3.70;;;;;;;16.49;64.01;101175.63;5000429;28;98622;-82
2023/05/11 02:56:56;;;;;;;3.90;3.60;;;;;;;16.51;64.01;101182.72;4999544;28;96622;-82
2023/05/11 02:59:23;;;;;;;3.73;3.43;;;;;;;16.48;63.79;101185.25;4999393;28;99204;-82
2023/05/11 03:01:49;;;;;;;3.40;3.20;;;;;;;16.43;64.23;101183.25;5001461;28;99473;-82
2023/05/11 03:04:15;;;;;;;3.90;3.60;;;;;;;16.42;64.01;101195.63;5000431;28;98833;-81
2023/05/11 03:06:40;;;;;;;4.90;3.73;;;;;;;16.42;64.22;101209.50;5005670;28;98912;-82
2023/05/11 03:09:06;;;;;;;4.00;3.80;;;;;;;16.41;63.98;101207.25;5002839;28;100534;-82
2023/05/11 03:11:31;;;;;;;4.07;3.77;;;;;;;16.37;64.10;101202.00;4997571;28;99391;-82
2023/05/11 03:13:58;;;;;;;4.60;4.30;;;;;;;16.33;64.19;101198.00;5000265;28;97175;-82
2023/05/11 03:16:23;;;;;;;4.30;3.90;;;;;;;16.29;64.09;101194.78;5006116;28;97025;-81
2023/05/11 03:18:50;;;;;;;4.33;4.03;;;;;;;16.26;64.50;101193.78;5006751;28;99604;-81
2023/05/11 03:21:20;;;;;;;4.17;3.87;;;;;;;16.23;64.47;101192.03;5000902;28;99448;-82
2023/05/11 03:23:46;;;;;;;4.57;4.17;;;;;;;16.19;64.63;101199.88;4998063;28;97174;-82
2023/05/11 03:26:13;;;;;;;4.27;3.97;;;;;;;16.18;64.55;101239.28;4998926;28;96780;-82
2023/05/11 03:28:41;;;;;;;4.90;4.60;;;;;;;16.14;64.56;101200.69;4997788;28;98260;-82
2023/05/11 03:31:07;;;;;;;4.30;4.00;;;;;;;16.15;64.60;101188.31;4994955;28;103738;-82
2023/05/11 03:33:32;;;;;;;4.77;4.37;;;;;;;16.17;64.69;101198.91;5001748;28;97433;-82
2023/05/11 03:35:59;;;;;;;4.63;3.87;;;;;;;16.22;64.62;101187.75;4996929;28;96911;-82
2023/05/11 03:38:27;;;;;;;4.77;4.40;;;;;;;16.22;64.47;101184.97;4997483;28;99811;-82
2023/05/11 03:40:55;;;;;;;3.97;3.73;;;;;;;16.19;64.41;101191.56;4998150;28;99655;-83
2023/05/11 03:43:21;;;;;;;4.67;4.37;;;;;;;16.14;64.65;101189.56;4996394;28;97552;-82
2023/05/11 03:45:49;;;;;;;5.20;4.80;;;;;;;16.10;64.62;101182.81;5011631;27;97167;-83
2023/05/11 03:48:17;;;;;;;5.30;4.90;;;;;;;16.08;64.72;101199.97;5013463;27;100624;-82
2023/05/11 03:50:43;;;;;;;5.10;4.67;;;;;;;15.98;64.84;101236.91;4999483;28;100137;-81
2023/05/11 03:53:10;;;;;;;5.23;4.90;;;;;;;16.08;64.86;101194.44;4996474;28;97307;-84
2023/05/11 03:55:36;;;;;;;4.93;4.40;;;;;;;16.06;64.69;101198.97;4997555;28;97059;-82
2023/05/11 03:58:06;;;;;;;5.00;4.60;;;;;;;16.04;64.89;101177.31;4994272;28;97369;-82
2023/05/11 04:00:32;;;;;;;4.60;4.20;;;;;;;16.02;64.78;101209.63;5007229;27;100433;-82
2023/05/11 04:03:03;;;;;;;5.20;4.80;;;;;;;16.02;64.79;101190.94;5013099;28;97555;-83
2023/05/11 04:05:28;;;;;;;5.23;4.63;;;;;;;15.99;64.83;101180.88;5013171;27;97034;-83
2023/05/11 04:07:54;;;;;;;4.70;4.33;;;;;;;15.95;64.97;101172.06;5010753;27;101873;-82
2023/05/11 04:10:19;;;;;;;4.10;3.80;;;;;;;15.94;64.82;101181.69;5014952;28;100434;-82
2023/05/11 04:12:44;;;;;;;4.90;4.50;;;;;;;15.92;64.98;101189.78;5014224;27;104422;-83
2023/05/11 04:15:10;;;;;;;4.30;4.00;;;;;;;15.91;65.00;101179.19;5012309;27;96963;-83
2023/05/11 04:17:35;;;;;;;4.30;3.90;;;;;;;15.89;65.11;101192.81;4997121;28;101956;-82
2023/05/11 04:20:00;;;;;;;4.97;4.57;;;;;;;15.90;64.96;101180.47;4999761;28;96864;-82
2023/05/11 04:22:26;;;;;;;4.53;4.20;;;;;;;15.90;64.98;101195.06;5010089;27;96835;-82
2023/05/11 04:24:51;;;;;;;5.20;4.77;;;;;;;15.89;64.92;101199.13;4996041;28;96754;-82
2023/05/11 04:27:16;;;;;;;5.00;4.60;;;;;;;15.89;65.10;101184.50;4996407;28;96927;-83
2023/05/11 04:29:42;;;;;;;4.63;4.33;;;;;;;15.93;64.95;101184.97;5004182;28;100780;-82
2023/05/11 04:32:07;;;;;;;5.47;4.97;;;;;;;15.94;64.79;101219.78;5007970;27;97727;-83
2023/05/11 04:34:33;;;;;;;5.00;4.60;;;;;;;15.94;64.77;101208.69;4996888;28;96989;-84
2023/05/11 04:36:58;;;;;;;5.03;4.40;;;;;;;15.96;64.99;101203.38;4997188;28;96890;-82
2023/05/11 04:39:23;;;;;;;5.23;4.83;;;;;;;15.96;64.85;101203.38;4999716;28;98121;-83
2023/05/11 04:41:49;;;;;;;5.50;5.10;;;;;;;15.96;64.79;101195.03;4997008;28;96752;-82
2023/05/11 04:44:14;;;;;;;5.53;5.13;;;;;;;15.95;64.80;101193.53;4999485;28;96832;-83
2023/05/11 04:46:40;;;;;;;4.57;3.97;;;;;;;15.95;64.91;101235.91;5000809;28;99482;-83
2023/05/11 04:49:05;;;;;;;5.60;5.13;;;;;;;15.94;64.98;101206.66;4998525;28;97364;-83
2023/05/11 04:51:31;;;;;;;5.57;5.17;;;;;;;15.93;64.92;101198.84;5016200;27;97874;-83
2023/05/11 04:53:56;;;;;;;7.00;5.87;;;;;;;15.93;64.98;101212.72;4993851;28;97020;-83
2023/05/11 04:56:22;;;;;;;8.40;5.00;;;;;;;15.97;64.83;101218.72;5009431;27;99111;-83
2023/05/11 04:58:47;;;;;;;4.60;4.30;;;;;;;15.95;64.84;101208.16;4995840;28;100113;-82
2023/05/11 05:01:12;;;;;;;9.73;5.10;;;;;;;15.93;64.84;101204.38;4998512;28;97463;-82
2023/05/11 05:03:38;;;;;;;5.20;4.77;;;;;;;15.97;64.72;101213.19;5007178;27;97471;-84
2023/05/11 05:06:03;;;;;;;5.60;5.07;;;;;;;15.90;64.81;101242.25;4997804;28;99440;-82
2023/05/11 05:08:28;;;;;;;4.77;4.37;;;;;;;15.86;64.94;101202.91;4994878;28;97411;-83
2023/05/11 05:10:54;;;;;;;5.27;4.87;;;;;;;15.84;64.98;101197.13;5010490;27;96697;-83
2023/05/11 05:13:19;;;;;;;5.00;4.60;;;;;;;15.86;65.15;101241.78;4997734;28;97364;-83
2023/05/11 05:15:45;;;;;;;4.50;4.10;;;;;;;15.80;65.18;101221.63;5011578;27;99088;-82
2023/05/11 05:18:10;;;;;;;4.50;4.20;;;;;;;15.82;65.19;101223.88;4995457;28;102820;-82
2023/05/11 05:20:35;;;;;;;4.10;3.80;;;;;;;15.86;65.02;101219.56;4996934;28;98237;-83
2023/05/11 05:23:01;;;;;;;12.43;4.23;;;;;;;15.90;64.74;101206.16;5011858;27;97345;-82
2023/05/11 05:25:26;;;;;;;4.93;4.43;;;;;;;15.92;64.86;101222.31;4998326;28;98161;-82
2023/05/11 05:27:52;;;;;;;4.37;4.03;;;;;;;15.94;64.87;101248.28;4993245;28;97365;-82
2023/05/11 05:30:17;;;;;;;4.60;4.30;;;;;;;15.99;64.73;101214.19;4997653;28;97458;-82
2023/05/11 05:32:43;;;;;;;4.30;4.00;;;;;;;16.00;64.80;101226.78;5000873;28;97939;-83
2023/05/11 05:35:08;;;;;;;4.60;4.27;;;;;;;16.02;64.74;101215.94;5008507;27;100755;-82
2023/05/11 05:37:33;;;;;;;5.17;4.67;;;;;;;16.02;64.75;101221.47;5012098;27;99299;-83
2023/05/11 05:39:59;;;;;;;4.10;3.80;;;;;;;15.99;64.69;101232.88;4995238;28;97438;-82
2023/05/11 05:42:24;;;;;;;3.73;3.53;;;;;;;15.98;64.83;101240.44;5013074;27;97315;-83
2023/05/11 05:44:50;;;;;;;4.23;3.93;;;;;;;16.03;64.76;101236.84;4994559;28;99496;-82
2023/05/11 05:47:15;;;;;;;3.97;3.67;;;;;;;15.98;64.69;101259.88;5011808;27;99220;-82
2023/05/11 05:49:41;;;;;;;4.70;4.40;;;;;;;16.04;64.79;101238.38;4995685;28;97456;-83
2023/05/11 05:52:06;;;;;;;4.43;4.13;;;;;;;16.17;64.74;101254.41;4999086;28;97861;-82
2023/05/11 05:54:31;;;;;;;3.70;3.50;;;;;;;16.15;64.78;101245.84;4994765;28;103180;-83
2023/05/11 05:56:57;;;;;;;5.00;4.60;;;;;;;16.25;64.57;101252.59;4995002;28;97539;-82
2023/05/11 05:59:23;;;;;;;4.17;3.87;;;;;;;16.27;64.53;101253.56;5012222;27;97465;-83
2023/05/11 06:01:50;;;;;;;4.50;4.20;;;;;;;16.32;64.47;101243.69;4993953;28;97258;-83
2023/05/11 06:04:15;;;;;;;4.30;4.00;;;;;;;16.31;64.60;101259.63;4993548;28;98366;-83
2023/05/11 06:06:41;;;;;;;3.90;3.60;;;;;;;16.35;64.52;101253.78;5003416;28;100073;-83
2023/05/11 06:09:06;;;;;;;3.87;3.57;;;;;;;16.39;64.42;101259.81;4996407;28;97293;-82
2023/05/11 06:11:32;;;;;;;4.47;4.07;;;;;;;16.41;64.48;101246.16;5011540;27;96982;-82
2023/05/11 06:13:57;;;;;;;4.70;4.30;;;;;;;16.45;64.35;101274.38;4996940;28;100670;-82
2023/05/11 06:16:24;;;;;;;4.10;3.80;;;;;;;16.45;64.52;101266.06;4995704;28;97372;-83
2023/05/11 06:18:49;;;;;;;3.90;3.60;;;;;;;16.54;64.16;101265.00;4999199;28;97372;-82
2023/05/11 06:21:15;;;;;;;3.73;3.50;;;;;;;16.51;64.15;101252.91;5010507;27;97163;-82
2023/05/11 06:23:40;;;;;;;4.03;3.73;;;;;;;16.56;64.27;101270.78;5000374;28;99980;-83
2023/05/11 06:26:05;;;;;;;3.70;3.50;;;;;;;16.63;64.38;101276.53;4998971;28;98273;-82
2023/05/11 06:28:31;;;;;;;4.07;3.77;;;;;;;16.58;64.31;101271.03;4992998;28;96673;-83
2023/05/11 06:30:59;;;;;;;4.10;3.80;;;;;;;16.60;64.38;101260.16;4996284;28;96835;-83
2023/05/11 06:33:25;;;;;;;4.43;4.13;;;;;;;16.64;64.34;101268.97;5002972;28;99757;-83
2023/05/11 06:35:51;;;;;;;4.73;4.40;;;;;;;16.74;64.40;101253.44;4995426;28;97618;-83
2023/05/11 06:38:16;;;;;;;4.30;4.00;;;;;;;16.75;64.33;101264.06;4994922;28;97118;-83
2023/05/11 06:40:41;;;;;;;4.70;4.30;;;;;;;16.81;64.25;101261.22;5005278;28;96859;-82
2023/05/11 06:43:07;;;;;;;3.60;3.40;;;;;;;16.83;64.21;101256.63;4998513;28;100851;-82
2023/05/11 06:45:32;;;;;;;4.10;3.80;;;;;;;16.81;64.13;101250.84;5008368;27;99872;-83
2023/05/11 06:47:57;;;;;;;5.47;4.47;;;;;;;16.86;64.23;101260.41;4994440;28;97512;-83
2023/05/11 06:50:23;;;;;;;4.40;4.10;;;;;;;16.78;64.11;101268.56;4997807;28;97212;-83
2023/05/11 06:52:48;;;;;;;4.10;3.80;;;;;;;16.83;64.17;101275.34;4999252;28;97391;-82
2023/05/11 06:55:13;;;;;;;3.60;3.40;;;;;;;16.89;64.07;101271.22;4995799;28;102939;-81
2023/05/11 06:57:39;;;;;;;3.93;3.63;;;;;;;16.94;64.01;101273.19;4996383;28;96571;-82
2023/05/11 07:00:05;;;;;;;4.20;3.90;;;;;;;17.00;64.10;101262.00;4996531;28;97122;-82
2023/05/11 07:02:30;;;;;;;3.60;3.40;;;;;;;17.02;64.04;101273.34;4992253;28;97631;-82
2023/05/11 07:04:57;;;;;;;4.10;3.80;;;;;;;17.05;64.00;101275.88;4996837;28;98976;-82
2023/05/11 07:07:22;;;;;;;4.80;4.30;;;;;;;16.95;64.02;101266.34;5010069;27;96721;-83
2023/05/11 07:09:48;;;;;;;4.23;3.93;;;;;;;17.03;64.03;101270.06;5001892;28;97491;-83
2023/05/11 07:12:13;;;;;;;3.60;3.40;;;;;;;17.11;64.11;101262.66;4999179;28;100063;-81
2023/05/11 07:14:38;;;;;;;3.60;3.40;;;;;;;17.16;64.00;101269.41;4998976;28;97491;-81
2023/05/11 07:17:04;;;;;;;3.80;3.50;;;;;;;17.12;63.83;101268.97;4998269;28;97214;-82
2023/05/11 07:19:29;;;;;;;4.30;4.00;;;;;;;17.15;63.91;101256.78;4994995;28;96874;-82
2023/05/11 07:21:55;;;;;;;3.40;3.20;;;;;;;17.20;63.77;101265.06;5013957;27;100498;-82
2023/05/11 07:24:20;;;;;;;4.00;3.70;;;;;;;17.20;63.82;101264.31;4996272;28;98572;-82
2023/05/11 07:26:45;;;;;;;3.40;3.20;;;;;;;17.23;63.90;101272.34;4997550;28;96743;-82
2023/05/11 07:29:11;;;;;;;3.37;3.17;;;;;;;17.23;63.78;101296.66;5012488;27;97420;-82
2023/05/11 07:31:36;;;;;;;4.20;3.80;;;;;;;17.27;63.94;101274.09;5002559;28;97386;-82
2023/05/11 07:34:01;;;;;;;3.90;3.60;;;;;;;17.26;64.03;101265.00;5007171;28;102288;-82
2023/05/11 07:36:27;;;;;;;3.77;3.50;;;;;;;17.31;63.85;101261.41;5000733;28;96857;-82
2023/05/11 07:38:52;;;;;;;3.97;3.67;;;;;;;17.34;64.03;101271.50;4996430;28;97249;-82
2023/05/11 07:41:18;;;;;;;4.00;3.70;;;;;;;17.38;64.05;101258.03;5001163;28;104155;-82
2023/05/11 07:43:43;;;;;;;3.60;3.37;;;;;;;17.47;63.88;101279.16;5005552;28;99857;-82
2023/05/11 07:46:08;;;;;;;3.70;3.40;;;;;;;17.47;63.94;101268.03;5000625;28;97081;-82
2023/05/11 07:48:34;;;;;;;3.60;3.40;;;;;;;17.46;63.85;101264.50;4997177;28;97398;-82
2023/05/11 07:51:00;;;;;;;3.33;3.10;;;;;;;17.52;63.97;101281.91;4993838;28;99317;-82
2023/05/11 07:53:26;;;;;;;3.67;3.37;;;;;;;17.62;63.96;101268.38;4998882;28;96948;-82
2023/05/11 07:55:51;;;;;;;3.93;3.63;;;;;;;17.72;63.75;101270.25;4999391;28;97439;-82
2023/05/11 07:58:16;;;;;;;3.80;3.60;;;;;;;17.82;63.76;101281.75;4996195;28;97097;-82
2023/05/11 08:00:42;;;;;;;3.03;2.90;;;;;;;17.95;63.73;101268.63;4999072;28;102224;-82
2023/05/11 08:03:07;;;;;;;3.77;3.47;;;;;;;17.98;63.78;101273.16;5013261;27;99429;-83
2023/05/11 08:05:36;;;;;;;3.67;3.40;;;;;;;18.03;63.75;101277.16;5014351;27;97515;-82
2023/05/11 08:08:01;;;;;;;3.10;2.90;;;;;;;18.05;63.60;101271.78;4995204;28;97346;-83
2023/05/11 08:10:27;;;;;;;3.93;3.63;;;;;;;18.15;63.54;101274.94;4996292;28;96836;-82
2023/05/11 08:12:52;;;;;;;4.60;4.30;;;;;;;18.14;63.30;101281.78;5002822;28;106430;-82
2023/05/11 08:15:17;;;;;;;4.37;4.07;;;;;;;18.16;63.32;101273.66;4997744;28;97546;-82
2023/05/11 08:17:44;;;;;;;4.50;4.10;;;;;;;18.22;63.24;101277.84;4999045;28;97329;-82
2023/05/11 08:20:11;;;;;;;4.33;3.93;;;;;;;18.26;63.17;101277.56;4999529;28;98953;-82
2023/05/11 08:22:37;;;;;;;4.27;3.87;;;;;;;18.28;63.35;101280.56;4994792;28;97383;-82
2023/05/11 08:25:02;;;;;;;4.90;4.47;;;;;;;18.37;63.03;101286.47;4996828;28;96883;-83
2023/05/11 08:27:28;;;;;;;4.20;3.80;;;;;;;18.38;63.32;101276.09;5000646;28;96982;-82
2023/05/11 08:29:54;;;;;;;4.60;4.00;;;;;;;18.39;63.30;101280.38;4999702;28;100651;-83
2023/05/11 08:32:20;;;;;;;4.07;3.77;;;;;;;18.42;63.07;101279.31;4998180;28;97513;-81
2023/05/11 08:34:45;;;;;;;4.87;4.40;;;;;;;18.45;63.02;101278.28;4998835;28;97355;-83
2023/05/11 08:37:10;;;;;;;5.97;5.00;;;;;;;18.46;62.93;101285.34;4997882;28;97356;-82
2023/05/11 08:39:36;;;;;;;5.13;4.67;;;;;;;18.42;63.19;101282.84;4999752;28;100064;-82
2023/05/11 08:42:04;;;;;;;4.60;4.20;;;;;;;18.45;63.08;101270.69;4999381;28;99234;-82
2023/05/11 08:44:31;;;;;;;5.30;4.80;;;;;;;18.46;63.22;101290.91;4999608;28;98380;-83
2023/05/11 08:46:59;;;;;;;5.10;4.60;;;;;;;18.49;63.14;101287.09;5014267;27;97360;-83
2023/05/11 08:49:24;;;;;;;6.10;5.50;;;;;;;18.53;63.01;101287.50;5012486;27;99617;-82
2023/05/11 08:51:50;;;;;;;4.87;4.47;;;;;;;18.49;62.74;101284.28;4999717;28;98684;-83
2023/05/11 08:54:15;;;;;;;5.83;5.23;;;;;;;18.46;63.24;101293.72;4997067;28;97052;-82
2023/05/11 08:56:42;;;;;;;5.77;5.23;;;;;;;18.44;63.05;101296.25;4993014;28;98328;-83
2023/05/11 08:59:07;;;;;;;6.33;5.33;;;;;;;18.39;63.21;101280.38;4997057;28;99518;-83
2023/05/11 09:01:34;;;;;;;5.67;5.07;;;;;;;18.38;63.15;101276.84;4995252;28;99559;-83
2023/05/11 09:04:00;;;;;;;6.83;5.43;;;;;;;18.36;63.16;101289.81;4997420;28;96705;-82
2023/05/11 09:06:27;;;;;;;7.17;6.30;;;;;;;18.39;63.28;101283.19;4996539;28;97242;-82
2023/05/11 09:08:53;;;;;;;6.73;5.43;;;;;;;18.42;63.05;101291.22;4998367;28;99702;-82
2023/05/11 09:11:18;;;;;;;6.13;5.53;;;;;;;18.45;63.32;101289.44;4999078;28;96682;-81
2023/05/11 09:13:44;;;;;;;7.03;6.10;;;;;;;18.54;63.39;101298.13;5001422;28;97447;-83
2023/05/11 09:16:10;;;;;;;5.67;5.07;;;;;;;18.59;63.33;101288.94;4998973;28;96744;-83
2023/05/11 09:18:44;;;;;;;6.20;5.50;;;;;;;18.64;63.37;101298.47;4999442;28;97325;-82
2023/05/11 09:21:11;;;;;;;7.03;5.93;;;;;;;18.61;63.24;101266.84;4996680;28;99510;-82
2023/05/11 09:23:37;;;;;;;12.20;8.50;;;;;;;18.64;63.31;101290.13;4997644;28;96797;-82
2023/05/11 09:26:02;;;;;;;8.40;6.57;;;;;;;18.63;63.38;101278.22;4994644;28;97077;-82
2023/05/11 09:28:28;;;;;;;7.57;6.33;;;;;;;18.65;63.29;101292.34;5002780;28;102094;-82
2023/05/11 09:30:53;;;;;;;8.03;6.90;;;;;;;18.59;63.32;101286.13;5009503;27;99256;-82
2023/05/11 09:33:23;;;;;;;9.47;7.50;;;;;;;18.61;63.43;101285.59;5001266;28;97126;-82
2023/05/11 09:35:49;;;;;;;9.73;7.60;;;;;;;18.62;63.33;101287.13;4996504;28;97505;-82
2023/05/11 09:38:17;;;;;;;9.30;6.60;;;;;;;18.65;63.31;101284.00;5005028;28;100886;-82
2023/05/11 09:40:51;;;;;;;8.20;7.20;;;;;;;18.70;63.44;101282.41;5006358;28;99078;-82
2023/05/11 09:43:19;;;;;;;7.50;6.53;;;;;;;18.71;63.24;101297.84;4998266;28;96900;-81
2023/05/11 09:45:46;;;;;;;8.67;6.47;;;;;;;18.62;63.05;101299.03;5003480;28;97682;-82
2023/05/11 09:48:18;;;;;;;8.57;6.97;;;;;;;18.63;63.42;101281.00;5000510;28;97502;-80
2023/05/11 09:50:43;;;;;;;8.33;7.00;;;;;;;18.59;63.47;101288.94;5012598;27;99182;-82
2023/05/11 09:53:09;;;;;;;10.20;7.50;;;;;;;18.58;63.37;101320.13;5014199;27;97782;-81
2023/05/11 09:55:34;;;;;;;9.87;7.33;;;;;;;18.74;63.58;101282.09;5016103;28;96914;-81
2023/05/11 09:58:00;;;;;;;7.97;6.93;;;;;;;18.82;63.62;101282.97;5002466;28;101017;-81
2023/05/11 10:00:25;;;;;;;10.10;7.87;;;;;;;18.86;63.48;101289.72;4997300;28;97283;-80
2023/05/11 10:03:04;;;;;;;8.30;7.23;;;;;;;18.81;63.46;101279.41;5008047;27;98606;-81
2023/05/11 10:05:35;;;;;;;7.13;6.40;;;;;;;18.66;63.34;101268.03;5013538;27;97508;-82
2023/05/11 10:08:02;;;;;;;7.80;6.50;;;;;;;18.68;63.41;101287.75;4999308;28;101050;-80
2023/05/11 10:10:31;;;;;;;8.00;6.27;;;;;;;18.60;63.49;101295.25;4998649;28;97112;-80
2023/05/11 10:12:58;;;;;;;9.03;6.50;;;;;;;18.59;63.71;101280.56;5014528;27;97499;-81
2023/05/11 10:15:27;;;;;;;10.03;7.20;;;;;;;18.63;63.51;101297.00;5004485;28;96926;-81
2023/05/11 10:17:57;;;;;;;8.10;5.83;;;;;;;18.57;63.59;101277.56;4998198;28;98447;-80
2023/05/11 10:20:24;;;;;;;7.23;6.40;;;;;;;18.62;63.64;101273.19;4996538;28;99603;-81
2023/05/11 10:22:54;;;;;;;6.80;5.97;;;;;;;18.73;63.93;101275.75;4997015;28;96948;-81
2023/05/11 10:25:23;;;;;;;7.83;5.90;;;;;;;18.79;64.06;101273.63;5000343;28;97135;-81
2023/05/11 10:27:50;;;;;;;6.43;5.30;;;;;;;18.86;63.89;101273.00;4997892;28;97777;-80
2023/05/11 10:30:16;;;;;;;10.43;6.57;;;;;;;18.86;63.77;101272.22;4998951;28;99731;-81
2023/05/11 10:32:44;;;;;;;6.23;5.60;;;;;;;18.85;63.76;101268.69;4997732;28;96946;-81
2023/05/11 10:35:09;;;;;;;4.73;4.23;;;;;;;18.87;63.80;101266.13;4995401;28;98528;-81
2023/05/11 10:37:35;;;;;;;9.57;5.73;;;;;;;18.86;63.51;101277.81;4995856;28;97509;-82
2023/05/11 10:40:00;;;;;;;7.33;6.00;;;;;;;18.73;63.71;101263.84;4999969;28;96815;-81
2023/05/11 10:42:55;;;;;;;4.20;3.80;;;;;;;18.60;63.78;101268.16;5012105;27;97544;-81
2023/05/11 10:45:29;;;;;;;5.93;4.40;;;;;;;18.54;63.80;101264.69;4998525;28;97273;-80
2023/05/11 10:48:22;;;;;;;4.93;4.30;;;;;;;18.54;63.97;101266.75;4997558;28;97708;-81
2023/05/11 10:51:12;;;;;;;5.73;4.53;;;;;;;18.56;64.55;101262.13;4997051;28;97503;-80
2023/05/11 10:54:06;;;;;;;4.70;4.13;;;;;;;18.56;64.45;101253.78;4997588;28;97206;-81
2023/05/11 10:56:50;;;;;;;3.27;3.07;;;;;;;18.59;64.56;101277.78;5011545;27;97796;-80
2023/05/11 10:59:23;;;;;;;5.63;3.50;;;;;;;18.55;63.96;101274.56;4997869;28;97690;-81
2023/05/11 11:01:57;;;;;;;3.83;3.50;;;;;;;18.46;63.97;101263.81;5003197;28;100003;-80
2023/05/11 11:04:23;;;;;;;4.00;3.37;;;;;;;18.46;64.07;101274.97;5001815;28;97605;-81
2023/05/11 11:07:03;;;;;;;3.97;3.60;;;;;;;18.48;64.94;101268.84;5002303;28;98177;-81
2023/05/11 11:09:59;;;;;;;3.23;2.97;;;;;;;18.44;64.81;101260.03;5015825;27;100750;-80
2023/05/11 11:12:26;;;;;;;3.63;3.33;;;;;;;18.43;64.31;101272.47;5002694;28;97277;-81
2023/05/11 11:15:02;;;;;;;3.60;3.00;;;;;;;18.42;64.62;101260.56;5000659;28;97755;-80
2023/05/11 11:17:33;;;;;;;3.47;3.17;;;;;;;18.42;64.49;101260.56;5007029;28;97006;-80
2023/05/11 11:20:06;;;;;;;3.10;2.80;;;;;;;18.45;64.54;101256.75;5005338;28;101310;-81
2023/05/11 11:22:34;;;;;;;4.17;3.23;;;;;;;18.45;64.54;101256.00;4997884;28;97846;-81
2023/05/11 11:25:01;;;;;;;2.90;2.70;;;;;;;18.46;64.48;101254.69;5017228;27;97322;-81